createdAt,value
2019-04-04T00:01:35.606Z,8.81
2019-04-04T00:06:40.042Z,8.87
2019-04-04T00:11:44.478Z,8.73
2019-04-04T00:16:49.375Z,8.75
2019-04-04T00:21:53.862Z,8.72
2019-04-04T00:26:58.343Z,8.67
2019-04-04T00:32:02.800Z,8.70
2019-04-04T00:37:07.294Z,8.58
2019-04-04T00:42:11.735Z,8.47
2019-04-04T00:47:16.226Z,8.46
2019-04-04T00:52:20.661Z,8.41
2019-04-04T00:57:25.114Z,8.38
2019-04-04T01:02:29.580Z,8.19
2019-04-04T01:07:35.831Z,8.09
2019-04-04T01:12:40.179Z,7.97
2019-04-04T01:17:44.623Z,8.07
2019-04-04T01:22:49.063Z,7.96
2019-04-04T01:27:53.508Z,7.94
2019-04-04T01:32:57.947Z,7.94
2019-04-04T01:38:02.386Z,7.78
2019-04-04T01:43:08.848Z,7.62
2019-04-04T01:48:13.003Z,7.74
2019-04-04T01:53:17.717Z,7.62
2019-04-04T01:58:22.173Z,7.54
2019-04-04T02:03:26.661Z,7.66
2019-04-04T02:08:31.682Z,7.53
2019-04-04T02:13:36.645Z,7.46
2019-04-04T02:18:41.092Z,7.62
2019-04-04T02:23:45.546Z,7.63
2019-04-04T02:28:49.982Z,7.47
2019-04-04T02:33:54.478Z,7.59
2019-04-04T02:39:12.549Z,7.54
2019-04-04T02:44:17.758Z,7.46
2019-04-04T02:49:22.204Z,7.65
2019-04-04T02:54:26.624Z,7.51
2019-04-04T02:59:31.109Z,7.43
2019-04-04T03:04:36.023Z,7.56
2019-04-04T03:09:43.337Z,7.65
2019-04-04T03:14:50.338Z,7.62
2019-04-04T03:19:53.097Z,7.54
2019-04-04T03:24:57.530Z,7.59
2019-04-04T03:30:01.998Z,7.58
2019-04-04T03:35:07.606Z,7.69
2019-04-04T03:40:12.444Z,7.77
2019-04-04T03:45:16.893Z,7.60
2019-04-04T03:50:21.337Z,7.56
2019-04-04T03:55:27.834Z,7.67
2019-04-04T04:00:33.433Z,7.50
2019-04-04T04:05:40.754Z,7.39
2019-04-04T04:10:44.027Z,7.35
2019-04-04T04:15:48.537Z,7.30
2019-04-04T04:20:52.954Z,7.19
2019-04-04T04:25:57.468Z,7.17
2019-04-04T04:31:01.917Z,7.27
2019-04-04T04:36:09.545Z,7.37
2019-04-04T04:41:13.475Z,7.22
2019-04-04T04:46:18.114Z,7.24
2019-04-04T04:51:22.539Z,7.39
2019-04-04T04:56:26.982Z,7.31
2019-04-04T05:01:31.493Z,7.28
2019-04-04T05:06:36.363Z,7.18
2019-04-04T05:11:40.857Z,7.24
2019-04-04T05:16:45.301Z,7.35
2019-04-04T05:21:49.769Z,7.37
2019-04-04T05:26:54.232Z,7.29
2019-04-04T05:31:58.695Z,7.17
2019-04-04T05:37:03.164Z,7.30
2019-04-04T05:42:07.664Z,7.28
2019-04-04T05:47:12.140Z,7.36
2019-04-04T05:52:16.593Z,7.34
2019-04-04T05:57:21.052Z,7.20
2019-04-04T06:02:25.501Z,7.25
2019-04-04T06:07:30.022Z,7.35
2019-04-04T06:12:37.292Z,7.07
2019-04-04T06:17:40.639Z,7.35
2019-04-04T06:22:45.082Z,7.52
2019-04-04T06:27:49.511Z,8.04
2019-04-04T06:32:53.983Z,8.14
2019-04-04T06:37:58.399Z,7.50
2019-04-04T06:43:04.011Z,7.54
2019-04-04T06:48:08.553Z,7.38
2019-04-04T06:53:13.138Z,7.60
2019-04-04T06:58:17.582Z,7.95
2019-04-04T07:03:22.017Z,8.23
2019-04-04T07:08:26.450Z,8.15
2019-04-04T07:13:41.759Z,8.14
2019-04-04T07:18:37.062Z,8.50
2019-04-04T07:23:41.936Z,8.97
2019-04-04T07:28:50.103Z,9.28
2019-04-04T07:33:52.746Z,9.66
2019-04-04T07:38:58.218Z,9.87
2019-04-04T07:44:03.364Z,10.39
2019-04-04T07:49:07.816Z,10.67
2019-04-04T07:54:12.260Z,10.84
2019-04-04T07:59:16.716Z,11.28
2019-04-04T08:04:21.175Z,11.27
2019-04-04T08:09:26.367Z,11.57
2019-04-04T08:14:30.919Z,11.77
2019-04-04T08:19:35.395Z,11.89
2019-04-04T08:24:39.848Z,12.10
2019-04-04T08:29:44.297Z,12.46
2019-04-04T08:34:48.739Z,12.64
2019-04-04T08:39:54.104Z,13.17
2019-04-04T08:44:58.558Z,13.60
2019-04-04T08:50:03.062Z,13.74
2019-04-04T08:55:08.297Z,14.03
2019-04-04T09:00:13.186Z,14.52
2019-04-04T09:05:17.649Z,14.54
2019-04-04T09:10:22.115Z,14.63
2019-04-04T09:15:26.557Z,14.88
2019-04-04T09:20:31.014Z,15.34
2019-04-04T09:25:35.474Z,15.67
2019-04-04T09:30:39.924Z,16.14
2019-04-04T09:35:44.638Z,16.39
2019-04-04T09:40:49.103Z,16.42
2019-04-04T09:45:53.701Z,16.43
2019-04-04T09:50:58.216Z,15.96
2019-04-04T09:56:02.870Z,16.44
2019-04-04T10:01:07.414Z,15.82
2019-04-04T10:06:11.938Z,14.82
2019-04-04T10:11:16.399Z,15.39
2019-04-04T10:16:20.859Z,15.54
2019-04-04T10:21:25.326Z,16.01
2019-04-04T10:26:29.775Z,15.74
2019-04-04T10:31:34.229Z,15.41
2019-04-04T10:36:38.741Z,15.47
2019-04-04T10:41:43.373Z,15.91
2019-04-04T10:46:47.838Z,16.46
2019-04-04T10:51:52.291Z,17.16
2019-04-04T10:56:56.805Z,17.56
2019-04-04T11:02:01.272Z,17.20
2019-04-04T11:07:05.737Z,17.80
2019-04-04T11:12:10.184Z,16.92
2019-04-04T11:17:14.640Z,15.74
2019-04-04T11:22:19.094Z,15.85
2019-04-04T11:27:23.555Z,17.75
2019-04-04T11:32:28.184Z,17.99
2019-04-04T11:37:32.639Z,18.46
2019-04-04T11:42:37.103Z,19.23
2019-04-04T11:47:41.565Z,19.44
2019-04-04T11:52:46.023Z,19.03
2019-04-04T11:57:50.547Z,17.49
2019-04-04T12:02:55.011Z,17.56
2019-04-04T12:07:59.462Z,17.70
2019-04-04T12:13:03.924Z,17.01
2019-04-04T12:18:08.379Z,16.13
2019-04-04T12:23:12.828Z,16.85
2019-04-04T12:28:17.284Z,16.54
2019-04-04T12:33:21.748Z,17.44
2019-04-04T12:38:26.200Z,17.66
2019-04-04T12:43:30.657Z,17.26
2019-04-04T12:48:35.128Z,17.49
2019-04-04T12:53:39.737Z,17.84
2019-04-04T12:58:44.189Z,17.53
2019-04-04T13:03:48.642Z,16.89
2019-04-04T13:08:53.105Z,16.06
2019-04-04T13:13:57.565Z,16.80
2019-04-04T13:19:02.014Z,16.55
2019-04-04T13:24:06.565Z,16.69
2019-04-04T13:29:11.033Z,16.09
2019-04-04T13:34:15.503Z,16.41
2019-04-04T13:39:19.941Z,16.95
2019-04-04T13:44:24.399Z,16.81
2019-04-04T13:49:28.859Z,16.79
2019-04-04T13:54:33.316Z,15.75
2019-04-04T13:59:38.052Z,15.08
2019-04-04T14:04:42.508Z,14.40
2019-04-04T14:09:46.996Z,14.60
2019-04-04T14:14:51.453Z,14.30
2019-04-04T14:19:55.920Z,14.28
2019-04-04T14:25:00.388Z,13.79
2019-04-04T14:30:07.536Z,13.41
2019-04-04T14:35:13.227Z,12.59
2019-04-04T14:40:17.705Z,12.01
2019-04-04T14:45:22.204Z,11.83
2019-04-04T14:50:28.085Z,11.64
2019-04-04T14:55:32.874Z,11.28
2019-04-04T15:00:37.324Z,11.64
2019-04-04T15:05:41.801Z,11.33
2019-04-04T15:10:46.284Z,11.21
2019-04-04T15:16:13.435Z,10.93
2019-04-04T15:21:17.979Z,10.86
2019-04-04T15:26:23.552Z,10.60
2019-04-04T15:31:28.054Z,10.59
2019-04-04T15:36:32.511Z,10.71
2019-04-04T15:41:37.649Z,10.41
2019-04-04T15:46:42.210Z,10.51
2019-04-04T15:51:46.712Z,10.56
2019-04-04T15:56:51.208Z,10.45
2019-04-04T16:01:55.806Z,10.50
2019-04-04T16:07:00.273Z,10.52
2019-04-04T16:12:04.748Z,10.36
2019-04-04T16:17:09.211Z,9.98
2019-04-04T16:22:13.675Z,10.27
2019-04-04T16:27:18.141Z,10.12
2019-04-04T16:32:22.599Z,10.26
2019-04-04T16:37:27.064Z,9.85
2019-04-04T16:42:31.521Z,9.99
2019-04-04T16:47:35.982Z,9.40
2019-04-04T16:52:40.431Z,9.11
2019-04-04T16:57:45.160Z,8.87
2019-04-04T17:02:49.650Z,8.84
2019-04-04T17:07:54.168Z,8.68
2019-04-04T17:12:58.662Z,8.55
2019-04-04T17:18:03.118Z,8.34
2019-04-04T17:23:07.789Z,8.27
2019-04-04T17:28:12.778Z,8.36
2019-04-04T17:33:18.744Z,8.58
2019-04-04T17:38:23.285Z,8.19
2019-04-04T17:43:27.812Z,8.41
2019-04-04T17:48:33.132Z,8.14
